sensor_id;sensor_type;location;lat;lon;timestamp;P1;durP1;ratioP1;P2;durP2;ratioP2
3000;SDS011;1510;51.072;6.678;2022-10-31T00:01:14;517.27;;;493.47;;
3000;SDS011;1510;51.072;6.678;2022-10-31T00:03:41;484.63;;;463.63;;
3000;SDS011;1510;51.072;6.678;2022-10-31T00:06:14;436.83;;;418.43;;
3000;SDS011;1510;51.072;6.678;2022-10-31T00:08:44;432.33;;;415.00;;
3000;SDS011;1510;51.072;6.678;2022-10-31T00:11:11;451.67;;;432.77;;
3000;SDS011;1510;51.072;6.678;2022-10-31T00:13:38;477.93;;;457.47;;
3000;SDS011;1510;51.072;6.678;2022-10-31T00:16:17;485.03;;;463.60;;
3000;SDS011;1510;51.072;6.678;2022-10-31T00:18:47;534.80;;;508.30;;
3000;SDS011;1510;51.072;6.678;2022-10-31T00:21:14;532.00;;;507.50;;
3000;SDS011;1510;51.072;6.678;2022-10-31T00:23:41;538.17;;;512.17;;
3000;SDS011;1510;51.072;6.678;2022-10-31T00:26:11;550.80;;;524.50;;
3000;SDS011;1510;51.072;6.678;2022-10-31T00:28:38;540.23;;;515.13;;
3000;SDS011;1510;51.072;6.678;2022-10-31T00:31:08;529.97;;;505.13;;
3000;SDS011;1510;51.072;6.678;2022-10-31T00:33:38;573.87;;;545.60;;
3000;SDS011;1510;51.072;6.678;2022-10-31T00:36:09;591.93;;;561.90;;
3000;SDS011;1510;51.072;6.678;2022-10-31T00:38:41;606.50;;;574.80;;
3000;SDS011;1510;51.072;6.678;2022-10-31T00:41:10;566.87;;;538.30;;
3000;SDS011;1510;51.072;6.678;2022-10-31T00:43:37;544.17;;;517.87;;
3000;SDS011;1510;51.072;6.678;2022-10-31T00:46:04;566.63;;;538.37;;
3000;SDS011;1510;51.072;6.678;2022-10-31T00:48:31;581.83;;;551.77;;
3000;SDS011;1510;51.072;6.678;2022-10-31T00:50:58;595.97;;;562.57;;
3000;SDS011;1510;51.072;6.678;2022-10-31T00:53:24;595.20;;;562.87;;
3000;SDS011;1510;51.072;6.678;2022-10-31T00:55:51;577.70;;;546.77;;
3000;SDS011;1510;51.072;6.678;2022-10-31T00:58:20;563.33;;;534.03;;
3000;SDS011;1510;51.072;6.678;2022-10-31T01:00:47;543.40;;;515.80;;
3000;SDS011;1510;51.072;6.678;2022-10-31T01:03:19;527.60;;;501.20;;
3000;SDS011;1510;51.072;6.678;2022-10-31T01:05:54;507.97;;;482.90;;
3000;SDS011;1510;51.072;6.678;2022-10-31T01:08:22;500.93;;;477.50;;
3000;SDS011;1510;51.072;6.678;2022-10-31T01:10:57;489.00;;;466.00;;
3000;SDS011;1510;51.072;6.678;2022-10-31T01:13:26;468.17;;;446.67;;
3000;SDS011;1510;51.072;6.678;2022-10-31T01:15:53;473.30;;;450.43;;
3000;SDS011;1510;51.072;6.678;2022-10-31T01:18:20;468.17;;;446.47;;
3000;SDS011;1510;51.072;6.678;2022-10-31T01:20:47;479.37;;;456.87;;
3000;SDS011;1510;51.072;6.678;2022-10-31T01:23:22;479.03;;;456.73;;
3000;SDS011;1510;51.072;6.678;2022-10-31T01:25:49;481.27;;;459.13;;
3000;SDS011;1510;51.072;6.678;2022-10-31T01:28:16;517.57;;;492.30;;
3000;SDS011;1510;51.072;6.678;2022-10-31T01:30:44;527.63;;;501.63;;
3000;SDS011;1510;51.072;6.678;2022-10-31T01:33:10;532.93;;;505.73;;
3000;SDS011;1510;51.072;6.678;2022-10-31T01:35:37;544.97;;;518.23;;
3000;SDS011;1510;51.072;6.678;2022-10-31T01:38:04;538.70;;;513.00;;
3000;SDS011;1510;51.072;6.678;2022-10-31T01:40:30;544.40;;;517.10;;
3000;SDS011;1510;51.072;6.678;2022-10-31T01:42:57;552.07;;;523.57;;
3000;SDS011;1510;51.072;6.678;2022-10-31T01:45:24;550.60;;;521.50;;
3000;SDS011;1510;51.072;6.678;2022-10-31T01:47:52;547.67;;;520.00;;
3000;SDS011;1510;51.072;6.678;2022-10-31T01:50:23;540.40;;;512.90;;
3000;SDS011;1510;51.072;6.678;2022-10-31T01:52:54;519.00;;;493.80;;
3000;SDS011;1510;51.072;6.678;2022-10-31T01:55:23;523.67;;;498.57;;
3000;SDS011;1510;51.072;6.678;2022-10-31T01:57:52;521.53;;;498.17;;
3000;SDS011;1510;51.072;6.678;2022-10-31T02:00:23;544.33;;;518.27;;
3000;SDS011;1510;51.072;6.678;2022-10-31T02:02:51;552.37;;;525.50;;
3000;SDS011;1510;51.072;6.678;2022-10-31T02:05:22;565.77;;;538.20;;
3000;SDS011;1510;51.072;6.678;2022-10-31T02:07:51;574.27;;;546.87;;
3000;SDS011;1510;51.072;6.678;2022-10-31T02:10:22;611.00;;;580.07;;
3000;SDS011;1510;51.072;6.678;2022-10-31T02:12:49;631.80;;;597.77;;
3000;SDS011;1510;51.072;6.678;2022-10-31T02:15:18;651.10;;;615.90;;
3000;SDS011;1510;51.072;6.678;2022-10-31T02:17:44;687.63;;;649.40;;
3000;SDS011;1510;51.072;6.678;2022-10-31T02:20:14;736.23;;;693.13;;
3000;SDS011;1510;51.072;6.678;2022-10-31T02:22:49;720.47;;;678.23;;
3000;SDS011;1510;51.072;6.678;2022-10-31T02:25:41;751.57;;;705.07;;
3000;SDS011;1510;51.072;6.678;2022-10-31T02:28:25;783.57;;;735.43;;
3000;SDS011;1510;51.072;6.678;2022-10-31T02:31:13;780.97;;;733.07;;
3000;SDS011;1510;51.072;6.678;2022-10-31T02:33:48;788.20;;;738.00;;
3000;SDS011;1510;51.072;6.678;2022-10-31T02:36:20;878.60;;;819.00;;
3000;SDS011;1510;51.072;6.678;2022-10-31T02:38:52;906.30;;;841.17;;
3000;SDS011;1510;51.072;6.678;2022-10-31T02:41:26;902.93;;;837.87;;
3000;SDS011;1510;51.072;6.678;2022-10-31T02:44:00;897.27;;;834.10;;
3000;SDS011;1510;51.072;6.678;2022-10-31T02:46:35;901.73;;;838.00;;
3000;SDS011;1510;51.072;6.678;2022-10-31T02:49:07;869.73;;;808.93;;
3000;SDS011;1510;51.072;6.678;2022-10-31T02:51:38;872.40;;;807.80;;
3000;SDS011;1510;51.072;6.678;2022-10-31T02:54:14;886.33;;;821.00;;
3000;SDS011;1510;51.072;6.678;2022-10-31T02:56:43;876.20;;;811.63;;
3000;SDS011;1510;51.072;6.678;2022-10-31T02:59:10;880.30;;;816.90;;
3000;SDS011;1510;51.072;6.678;2022-10-31T03:01:41;853.57;;;792.57;;
3000;SDS011;1510;51.072;6.678;2022-10-31T03:04:29;839.60;;;779.20;;
3000;SDS011;1510;51.072;6.678;2022-10-31T03:07:08;848.70;;;789.23;;
3000;SDS011;1510;51.072;6.678;2022-10-31T03:09:44;827.53;;;771.00;;
3000;SDS011;1510;51.072;6.678;2022-10-31T03:12:19;810.40;;;754.87;;
3000;SDS011;1510;51.072;6.678;2022-10-31T03:14:53;826.87;;;769.90;;
3000;SDS011;1510;51.072;6.678;2022-10-31T03:17:24;820.73;;;765.37;;
3000;SDS011;1510;51.072;6.678;2022-10-31T03:19:57;830.37;;;775.20;;
3000;SDS011;1510;51.072;6.678;2022-10-31T03:22:29;829.90;;;775.30;;
3000;SDS011;1510;51.072;6.678;2022-10-31T03:24:58;828.57;;;775.03;;
3000;SDS011;1510;51.072;6.678;2022-10-31T03:27:28;845.30;;;791.40;;
3000;SDS011;1510;51.072;6.678;2022-10-31T03:29:58;849.53;;;794.40;;
3000;SDS011;1510;51.072;6.678;2022-10-31T03:32:31;843.13;;;788.87;;
3000;SDS011;1510;51.072;6.678;2022-10-31T03:35:02;830.60;;;776.13;;
3000;SDS011;1510;51.072;6.678;2022-10-31T03:37:32;846.67;;;789.57;;
3000;SDS011;1510;51.072;6.678;2022-10-31T03:40:01;863.33;;;798.10;;
3000;SDS011;1510;51.072;6.678;2022-10-31T03:42:33;857.17;;;788.77;;
3000;SDS011;1510;51.072;6.678;2022-10-31T03:45:03;863.87;;;798.70;;
3000;SDS011;1510;51.072;6.678;2022-10-31T03:47:33;865.50;;;802.60;;
3000;SDS011;1510;51.072;6.678;2022-10-31T03:50:03;870.67;;;808.33;;
3000;SDS011;1510;51.072;6.678;2022-10-31T03:52:32;860.40;;;796.40;;
3000;SDS011;1510;51.072;6.678;2022-10-31T03:55:07;865.97;;;800.33;;
3000;SDS011;1510;51.072;6.678;2022-10-31T03:57:39;869.70;;;804.43;;
3000;SDS011;1510;51.072;6.678;2022-10-31T04:00:11;869.73;;;803.10;;
3000;SDS011;1510;51.072;6.678;2022-10-31T04:02:42;881.37;;;817.93;;
3000;SDS011;1510;51.072;6.678;2022-10-31T04:05:12;870.70;;;805.20;;
3000;SDS011;1510;51.072;6.678;2022-10-31T04:07:41;862.97;;;797.63;;
3000;SDS011;1510;51.072;6.678;2022-10-31T04:10:13;850.27;;;786.80;;
3000;SDS011;1510;51.072;6.678;2022-10-31T04:12:42;844.67;;;783.33;;
3000;SDS011;1510;51.072;6.678;2022-10-31T04:15:14;846.30;;;785.60;;
3000;SDS011;1510;51.072;6.678;2022-10-31T04:17:42;850.53;;;791.43;;
3000;SDS011;1510;51.072;6.678;2022-10-31T04:20:13;835.00;;;779.07;;
3000;SDS011;1510;51.072;6.678;2022-10-31T04:22:42;837.90;;;781.73;;
3000;SDS011;1510;51.072;6.678;2022-10-31T04:25:08;843.63;;;785.90;;
3000;SDS011;1510;51.072;6.678;2022-10-31T04:27:35;858.67;;;799.10;;
3000;SDS011;1510;51.072;6.678;2022-10-31T04:30:02;845.07;;;783.90;;
3000;SDS011;1510;51.072;6.678;2022-10-31T04:32:29;848.17;;;785.67;;
3000;SDS011;1510;51.072;6.678;2022-10-31T04:34:57;856.57;;;790.90;;
3000;SDS011;1510;51.072;6.678;2022-10-31T04:37:24;853.50;;;788.10;;
3000;SDS011;1510;51.072;6.678;2022-10-31T04:39:50;854.40;;;788.47;;
3000;SDS011;1510;51.072;6.678;2022-10-31T04:42:17;857.73;;;789.50;;
3000;SDS011;1510;51.072;6.678;2022-10-31T04:44:44;852.83;;;781.77;;
3000;SDS011;1510;51.072;6.678;2022-10-31T04:47:10;849.57;;;777.90;;
3000;SDS011;1510;51.072;6.678;2022-10-31T04:49:37;828.27;;;757.20;;
3000;SDS011;1510;51.072;6.678;2022-10-31T04:52:05;830.37;;;759.97;;
3000;SDS011;1510;51.072;6.678;2022-10-31T04:54:33;843.97;;;774.37;;
3000;SDS011;1510;51.072;6.678;2022-10-31T04:56:59;833.30;;;762.70;;
3000;SDS011;1510;51.072;6.678;2022-10-31T04:59:26;828.43;;;758.43;;
3000;SDS011;1510;51.072;6.678;2022-10-31T05:01:53;815.40;;;744.90;;
3000;SDS011;1510;51.072;6.678;2022-10-31T05:04:20;808.97;;;738.37;;
3000;SDS011;1510;51.072;6.678;2022-10-31T05:06:46;806.93;;;736.90;;
3000;SDS011;1510;51.072;6.678;2022-10-31T05:09:15;815.67;;;744.17;;
3000;SDS011;1510;51.072;6.678;2022-10-31T05:11:41;812.57;;;742.27;;
3000;SDS011;1510;51.072;6.678;2022-10-31T05:14:08;812.10;;;740.93;;
3000;SDS011;1510;51.072;6.678;2022-10-31T05:16:35;797.47;;;728.73;;
3000;SDS011;1510;51.072;6.678;2022-10-31T05:19:01;798.83;;;729.33;;
3000;SDS011;1510;51.072;6.678;2022-10-31T05:21:28;798.60;;;728.90;;
3000;SDS011;1510;51.072;6.678;2022-10-31T05:23:55;806.10;;;736.47;;
3000;SDS011;1510;51.072;6.678;2022-10-31T05:26:23;801.07;;;732.17;;
3000;SDS011;1510;51.072;6.678;2022-10-31T05:28:49;808.40;;;740.37;;
3000;SDS011;1510;51.072;6.678;2022-10-31T05:31:16;806.17;;;737.87;;
3000;SDS011;1510;51.072;6.678;2022-10-31T05:33:43;805.70;;;736.20;;
3000;SDS011;1510;51.072;6.678;2022-10-31T05:36:10;821.47;;;752.10;;
3000;SDS011;1510;51.072;6.678;2022-10-31T05:38:36;813.43;;;745.97;;
3000;SDS011;1510;51.072;6.678;2022-10-31T05:41:03;825.10;;;756.80;;
3000;SDS011;1510;51.072;6.678;2022-10-31T05:43:31;819.30;;;751.00;;
3000;SDS011;1510;51.072;6.678;2022-10-31T05:45:58;815.07;;;747.17;;
3000;SDS011;1510;51.072;6.678;2022-10-31T05:48:25;815.90;;;749.30;;
3000;SDS011;1510;51.072;6.678;2022-10-31T05:50:51;805.60;;;740.10;;
3000;SDS011;1510;51.072;6.678;2022-10-31T05:53:18;807.33;;;742.20;;
3000;SDS011;1510;51.072;6.678;2022-10-31T05:55:45;810.87;;;746.07;;
3000;SDS011;1510;51.072;6.678;2022-10-31T05:58:13;809.83;;;744.27;;
3000;SDS011;1510;51.072;6.678;2022-10-31T06:00:41;802.00;;;737.50;;
3000;SDS011;1510;51.072;6.678;2022-10-31T06:03:10;801.73;;;736.53;;
3000;SDS011;1510;51.072;6.678;2022-10-31T06:05:41;805.17;;;740.40;;
3000;SDS011;1510;51.072;6.678;2022-10-31T06:08:11;801.30;;;735.90;;
3000;SDS011;1510;51.072;6.678;2022-10-31T06:10:40;798.20;;;733.23;;
3000;SDS011;1510;51.072;6.678;2022-10-31T06:13:08;798.00;;;732.43;;
3000;SDS011;1510;51.072;6.678;2022-10-31T06:15:35;800.43;;;734.90;;
3000;SDS011;1510;51.072;6.678;2022-10-31T06:18:04;792.07;;;725.30;;
3000;SDS011;1510;51.072;6.678;2022-10-31T06:20:31;794.40;;;726.07;;
3000;SDS011;1510;51.072;6.678;2022-10-31T06:22:59;779.40;;;712.00;;
3000;SDS011;1510;51.072;6.678;2022-10-31T06:25:26;790.80;;;721.10;;
3000;SDS011;1510;51.072;6.678;2022-10-31T06:27:53;797.43;;;727.00;;
3000;SDS011;1510;51.072;6.678;2022-10-31T06:30:20;796.80;;;723.70;;
3000;SDS011;1510;51.072;6.678;2022-10-31T06:32:47;786.60;;;715.03;;
3000;SDS011;1510;51.072;6.678;2022-10-31T06:35:15;785.83;;;714.40;;
3000;SDS011;1510;51.072;6.678;2022-10-31T06:37:42;790.37;;;718.50;;
3000;SDS011;1510;51.072;6.678;2022-10-31T06:40:16;789.70;;;718.10;;
3000;SDS011;1510;51.072;6.678;2022-10-31T06:42:42;798.47;;;725.90;;
3000;SDS011;1510;51.072;6.678;2022-10-31T06:45:09;793.10;;;721.10;;
3000;SDS011;1510;51.072;6.678;2022-10-31T06:47:36;792.30;;;720.10;;
3000;SDS011;1510;51.072;6.678;2022-10-31T06:50:03;797.93;;;724.37;;
3000;SDS011;1510;51.072;6.678;2022-10-31T06:52:31;789.73;;;716.93;;
3000;SDS011;1510;51.072;6.678;2022-10-31T06:54:58;789.90;;;717.60;;
3000;SDS011;1510;51.072;6.678;2022-10-31T06:57:25;795.17;;;722.73;;
3000;SDS011;1510;51.072;6.678;2022-10-31T06:59:51;791.57;;;720.30;;
3000;SDS011;1510;51.072;6.678;2022-10-31T07:02:18;793.97;;;722.90;;
3000;SDS011;1510;51.072;6.678;2022-10-31T07:04:45;796.77;;;725.47;;
3000;SDS011;1510;51.072;6.678;2022-10-31T07:07:11;792.73;;;721.20;;
3000;SDS011;1510;51.072;6.678;2022-10-31T07:09:39;798.23;;;728.50;;
3000;SDS011;1510;51.072;6.678;2022-10-31T07:12:06;783.40;;;715.33;;
3000;SDS011;1510;51.072;6.678;2022-10-31T07:14:33;790.47;;;722.17;;
3000;SDS011;1510;51.072;6.678;2022-10-31T07:16:59;794.07;;;725.33;;
3000;SDS011;1510;51.072;6.678;2022-10-31T07:19:26;786.27;;;719.30;;
3000;SDS011;1510;51.072;6.678;2022-10-31T07:21:53;782.80;;;716.33;;
3000;SDS011;1510;51.072;6.678;2022-10-31T07:24:19;784.87;;;718.73;;
3000;SDS011;1510;51.072;6.678;2022-10-31T07:26:47;780.73;;;715.67;;
3000;SDS011;1510;51.072;6.678;2022-10-31T07:29:14;783.93;;;719.90;;
3000;SDS011;1510;51.072;6.678;2022-10-31T07:31:41;783.80;;;720.30;;
3000;SDS011;1510;51.072;6.678;2022-10-31T07:34:09;781.37;;;719.40;;
3000;SDS011;1510;51.072;6.678;2022-10-31T07:36:35;783.33;;;722.70;;
3000;SDS011;1510;51.072;6.678;2022-10-31T07:39:02;777.87;;;718.53;;
3000;SDS011;1510;51.072;6.678;2022-10-31T07:41:29;780.67;;;721.83;;
3000;SDS011;1510;51.072;6.678;2022-10-31T07:43:57;785.40;;;728.20;;
3000;SDS011;1510;51.072;6.678;2022-10-31T07:46:23;766.03;;;711.40;;
3000;SDS011;1510;51.072;6.678;2022-10-31T07:48:50;756.77;;;703.60;;
3000;SDS011;1510;51.072;6.678;2022-10-31T07:51:17;743.43;;;692.67;;
3000;SDS011;1510;51.072;6.678;2022-10-31T07:53:43;718.13;;;669.80;;
3000;SDS011;1510;51.072;6.678;2022-10-31T07:56:11;681.03;;;639.80;;
3000;SDS011;1510;51.072;6.678;2022-10-31T07:58:37;667.87;;;628.90;;
3000;SDS011;1510;51.072;6.678;2022-10-31T08:01:05;634.80;;;599.07;;
3000;SDS011;1510;51.072;6.678;2022-10-31T08:03:32;607.53;;;574.93;;
3000;SDS011;1510;51.072;6.678;2022-10-31T08:05:59;567.77;;;539.03;;
3000;SDS011;1510;51.072;6.678;2022-10-31T08:08:25;541.23;;;515.53;;
3000;SDS011;1510;51.072;6.678;2022-10-31T08:10:53;518.37;;;494.37;;
3000;SDS011;1510;51.072;6.678;2022-10-31T08:13:20;471.27;;;450.77;;
3000;SDS011;1510;51.072;6.678;2022-10-31T08:15:47;345.03;;;330.70;;
3000;SDS011;1510;51.072;6.678;2022-10-31T08:18:16;349.17;;;334.70;;
3000;SDS011;1510;51.072;6.678;2022-10-31T08:20:43;319.90;;;307.20;;
3000;SDS011;1510;51.072;6.678;2022-10-31T08:23:11;257.67;;;247.60;;
3000;SDS011;1510;51.072;6.678;2022-10-31T08:25:38;261.57;;;250.97;;
3000;SDS011;1510;51.072;6.678;2022-10-31T08:28:08;216.43;;;207.63;;
3000;SDS011;1510;51.072;6.678;2022-10-31T08:30:36;215.23;;;206.80;;
3000;SDS011;1510;51.072;6.678;2022-10-31T08:33:04;147.77;;;141.27;;
3000;SDS011;1510;51.072;6.678;2022-10-31T08:35:33;118.40;;;113.33;;
3000;SDS011;1510;51.072;6.678;2022-10-31T08:38:00;104.40;;;99.83;;
3000;SDS011;1510;51.072;6.678;2022-10-31T08:40:28;83.50;;;79.57;;
3000;SDS011;1510;51.072;6.678;2022-10-31T08:42:56;80.33;;;75.83;;
3000;SDS011;1510;51.072;6.678;2022-10-31T08:45:24;80.83;;;76.67;;
3000;SDS011;1510;51.072;6.678;2022-10-31T08:47:51;56.40;;;53.40;;
3000;SDS011;1510;51.072;6.678;2022-10-31T08:50:18;44.57;;;40.50;;
3000;SDS011;1510;51.072;6.678;2022-10-31T08:52:46;33.47;;;30.53;;
3000;SDS011;1510;51.072;6.678;2022-10-31T08:55:12;31.00;;;28.60;;
3000;SDS011;1510;51.072;6.678;2022-10-31T08:57:39;23.50;;;21.37;;
3000;SDS011;1510;51.072;6.678;2022-10-31T09:00:06;24.20;;;22.00;;
3000;SDS011;1510;51.072;6.678;2022-10-31T09:02:34;21.07;;;15.40;;
3000;SDS011;1510;51.072;6.678;2022-10-31T09:05:02;17.73;;;13.20;;
3000;SDS011;1510;51.072;6.678;2022-10-31T09:07:28;15.83;;;12.20;;
3000;SDS011;1510;51.072;6.678;2022-10-31T09:09:57;15.33;;;11.00;;
3000;SDS011;1510;51.072;6.678;2022-10-31T09:12:23;15.53;;;10.30;;
3000;SDS011;1510;51.072;6.678;2022-10-31T09:14:50;16.77;;;9.93;;
3000;SDS011;1510;51.072;6.678;2022-10-31T09:17:17;19.23;;;10.47;;
3000;SDS011;1510;51.072;6.678;2022-10-31T09:19:45;16.80;;;9.93;;
3000;SDS011;1510;51.072;6.678;2022-10-31T09:22:11;18.13;;;9.27;;
3000;SDS011;1510;51.072;6.678;2022-10-31T09:24:38;18.67;;;8.20;;
3000;SDS011;1510;51.072;6.678;2022-10-31T09:27:06;22.60;;;10.30;;
3000;SDS011;1510;51.072;6.678;2022-10-31T09:29:34;23.03;;;10.37;;
3000;SDS011;1510;51.072;6.678;2022-10-31T09:32:00;18.67;;;10.37;;
3000;SDS011;1510;51.072;6.678;2022-10-31T09:34:27;16.80;;;9.70;;
3000;SDS011;1510;51.072;6.678;2022-10-31T09:36:54;17.43;;;9.47;;
3000;SDS011;1510;51.072;6.678;2022-10-31T09:39:21;17.37;;;10.73;;
3000;SDS011;1510;51.072;6.678;2022-10-31T09:41:55;16.13;;;9.60;;
3000;SDS011;1510;51.072;6.678;2022-10-31T09:44:33;15.73;;;9.70;;
3000;SDS011;1510;51.072;6.678;2022-10-31T09:47:10;29.67;;;9.60;;
3000;SDS011;1510;51.072;6.678;2022-10-31T09:49:53;17.20;;;8.80;;
3000;SDS011;1510;51.072;6.678;2022-10-31T09:52:29;17.33;;;9.90;;
3000;SDS011;1510;51.072;6.678;2022-10-31T09:54:58;17.60;;;9.73;;
3000;SDS011;1510;51.072;6.678;2022-10-31T09:57:31;22.83;;;8.97;;
3000;SDS011;1510;51.072;6.678;2022-10-31T10:00:03;14.47;;;9.43;;
3000;SDS011;1510;51.072;6.678;2022-10-31T10:02:32;18.53;;;9.33;;
3000;SDS011;1510;51.072;6.678;2022-10-31T10:05:04;23.07;;;9.87;;
3000;SDS011;1510;51.072;6.678;2022-10-31T10:07:35;16.47;;;8.10;;
3000;SDS011;1510;51.072;6.678;2022-10-31T10:10:12;22.77;;;10.50;;
3000;SDS011;1510;51.072;6.678;2022-10-31T10:12:46;14.87;;;8.63;;
3000;SDS011;1510;51.072;6.678;2022-10-31T10:15:40;15.60;;;9.00;;
3000;SDS011;1510;51.072;6.678;2022-10-31T10:18:23;14.80;;;9.00;;
3000;SDS011;1510;51.072;6.678;2022-10-31T10:21:01;16.60;;;8.73;;
3000;SDS011;1510;51.072;6.678;2022-10-31T10:23:36;18.57;;;8.37;;
3000;SDS011;1510;51.072;6.678;2022-10-31T10:26:15;14.53;;;8.80;;
3000;SDS011;1510;51.072;6.678;2022-10-31T10:28:44;16.00;;;7.73;;
3000;SDS011;1510;51.072;6.678;2022-10-31T10:31:18;15.10;;;8.63;;
3000;SDS011;1510;51.072;6.678;2022-10-31T10:33:52;18.87;;;9.10;;
3000;SDS011;1510;51.072;6.678;2022-10-31T10:36:27;16.80;;;8.80;;
3000;SDS011;1510;51.072;6.678;2022-10-31T10:39:02;16.03;;;8.80;;
3000;SDS011;1510;51.072;6.678;2022-10-31T10:41:32;17.80;;;8.63;;
3000;SDS011;1510;51.072;6.678;2022-10-31T10:43:59;15.33;;;8.10;;
3000;SDS011;1510;51.072;6.678;2022-10-31T10:46:28;16.47;;;8.20;;
3000;SDS011;1510;51.072;6.678;2022-10-31T10:49:32;15.20;;;8.20;;
3000;SDS011;1510;51.072;6.678;2022-10-31T10:52:06;16.67;;;8.60;;
3000;SDS011;1510;51.072;6.678;2022-10-31T10:54:54;12.47;;;7.60;;
3000;SDS011;1510;51.072;6.678;2022-10-31T10:57:34;16.00;;;8.17;;
3000;SDS011;1510;51.072;6.678;2022-10-31T11:00:21;24.03;;;9.03;;
3000;SDS011;1510;51.072;6.678;2022-10-31T11:02:50;18.20;;;8.73;;
3000;SDS011;1510;51.072;6.678;2022-10-31T11:05:20;16.33;;;8.40;;
3000;SDS011;1510;51.072;6.678;2022-10-31T11:07:59;17.50;;;8.73;;
3000;SDS011;1510;51.072;6.678;2022-10-31T11:10:25;24.20;;;8.90;;
3000;SDS011;1510;51.072;6.678;2022-10-31T11:13:00;19.20;;;7.50;;
3000;SDS011;1510;51.072;6.678;2022-10-31T11:15:31;14.43;;;7.80;;
3000;SDS011;1510;51.072;6.678;2022-10-31T11:18:03;17.47;;;8.57;;
3000;SDS011;1510;51.072;6.678;2022-10-31T11:20:31;16.03;;;8.50;;
3000;SDS011;1510;51.072;6.678;2022-10-31T11:23:15;13.90;;;7.33;;
3000;SDS011;1510;51.072;6.678;2022-10-31T11:25:50;14.00;;;7.80;;
3000;SDS011;1510;51.072;6.678;2022-10-31T11:28:20;17.83;;;8.60;;
3000;SDS011;1510;51.072;6.678;2022-10-31T11:30:47;15.17;;;6.97;;
3000;SDS011;1510;51.072;6.678;2022-10-31T11:33:21;20.20;;;7.83;;
3000;SDS011;1510;51.072;6.678;2022-10-31T11:35:52;17.80;;;8.07;;
3000;SDS011;1510;51.072;6.678;2022-10-31T11:38:21;15.03;;;7.07;;
3000;SDS011;1510;51.072;6.678;2022-10-31T11:40:51;14.57;;;6.77;;
3000;SDS011;1510;51.072;6.678;2022-10-31T11:43:20;13.87;;;6.47;;
3000;SDS011;1510;51.072;6.678;2022-10-31T11:45:47;14.00;;;6.90;;
3000;SDS011;1510;51.072;6.678;2022-10-31T11:48:15;15.07;;;6.50;;
3000;SDS011;1510;51.072;6.678;2022-10-31T11:50:47;15.57;;;6.80;;
3000;SDS011;1510;51.072;6.678;2022-10-31T11:53:15;15.53;;;5.83;;
3000;SDS011;1510;51.072;6.678;2022-10-31T11:55:44;11.80;;;5.47;;
3000;SDS011;1510;51.072;6.678;2022-10-31T11:58:19;14.70;;;6.63;;
3000;SDS011;1510;51.072;6.678;2022-10-31T12:00:48;9.93;;;5.17;;
3000;SDS011;1510;51.072;6.678;2022-10-31T12:03:26;11.90;;;5.80;;
3000;SDS011;1510;51.072;6.678;2022-10-31T12:06:07;15.23;;;5.03;;
3000;SDS011;1510;51.072;6.678;2022-10-31T12:08:37;11.27;;;5.03;;
3000;SDS011;1510;51.072;6.678;2022-10-31T12:11:08;12.33;;;6.20;;
3000;SDS011;1510;51.072;6.678;2022-10-31T12:13:45;9.93;;;4.80;;
3000;SDS011;1510;51.072;6.678;2022-10-31T12:16:27;14.90;;;5.27;;
3000;SDS011;1510;51.072;6.678;2022-10-31T12:18:59;20.53;;;5.23;;
3000;SDS011;1510;51.072;6.678;2022-10-31T12:21:37;8.50;;;4.57;;
3000;SDS011;1510;51.072;6.678;2022-10-31T12:24:17;12.83;;;4.50;;
3000;SDS011;1510;51.072;6.678;2022-10-31T12:26:58;10.00;;;5.20;;
3000;SDS011;1510;51.072;6.678;2022-10-31T12:29:39;8.80;;;4.53;;
3000;SDS011;1510;51.072;6.678;2022-10-31T12:32:27;9.83;;;5.23;;
3000;SDS011;1510;51.072;6.678;2022-10-31T12:35:09;8.57;;;4.67;;
3000;SDS011;1510;51.072;6.678;2022-10-31T12:37:56;20.60;;;4.87;;
3000;SDS011;1510;51.072;6.678;2022-10-31T12:40:35;12.03;;;4.53;;
3000;SDS011;1510;51.072;6.678;2022-10-31T12:43:16;11.40;;;4.83;;
3000;SDS011;1510;51.072;6.678;2022-10-31T12:45:53;10.50;;;5.03;;
3000;SDS011;1510;51.072;6.678;2022-10-31T12:51:31;12.73;;;4.93;;
3000;SDS011;1510;51.072;6.678;2022-10-31T12:54:09;14.63;;;5.43;;
3000;SDS011;1510;51.072;6.678;2022-10-31T12:56:50;8.87;;;4.67;;
3000;SDS011;1510;51.072;6.678;2022-10-31T12:59:24;13.53;;;6.33;;
3000;SDS011;1510;51.072;6.678;2022-10-31T13:01:59;11.70;;;5.77;;
3000;SDS011;1510;51.072;6.678;2022-10-31T13:04:35;12.93;;;5.47;;
3000;SDS011;1510;51.072;6.678;2022-10-31T13:07:08;16.13;;;5.40;;
3000;SDS011;1510;51.072;6.678;2022-10-31T13:09:42;11.23;;;4.73;;
3000;SDS011;1510;51.072;6.678;2022-10-31T13:12:16;12.87;;;5.30;;
3000;SDS011;1510;51.072;6.678;2022-10-31T13:14:46;13.70;;;6.20;;
3000;SDS011;1510;51.072;6.678;2022-10-31T13:17:18;14.33;;;5.43;;
3000;SDS011;1510;51.072;6.678;2022-10-31T13:19:50;10.50;;;5.30;;
3000;SDS011;1510;51.072;6.678;2022-10-31T13:22:20;10.37;;;5.40;;
3000;SDS011;1510;51.072;6.678;2022-10-31T13:24:53;10.33;;;4.50;;
3000;SDS011;1510;51.072;6.678;2022-10-31T13:27:24;8.87;;;4.50;;
3000;SDS011;1510;51.072;6.678;2022-10-31T13:29:57;14.80;;;4.83;;
3000;SDS011;1510;51.072;6.678;2022-10-31T13:32:27;10.97;;;4.80;;
3000;SDS011;1510;51.072;6.678;2022-10-31T13:35:03;13.20;;;4.93;;
3000;SDS011;1510;51.072;6.678;2022-10-31T13:37:36;10.20;;;4.67;;
3000;SDS011;1510;51.072;6.678;2022-10-31T13:40:11;17.27;;;5.23;;
3000;SDS011;1510;51.072;6.678;2022-10-31T13:42:49;9.60;;;5.13;;
3000;SDS011;1510;51.072;6.678;2022-10-31T13:45:23;16.57;;;4.70;;
3000;SDS011;1510;51.072;6.678;2022-10-31T13:47:59;10.23;;;5.43;;
3000;SDS011;1510;51.072;6.678;2022-10-31T13:50:55;10.43;;;4.60;;
3000;SDS011;1510;51.072;6.678;2022-10-31T13:53:35;10.73;;;4.97;;
3000;SDS011;1510;51.072;6.678;2022-10-31T13:56:16;13.37;;;4.83;;
3000;SDS011;1510;51.072;6.678;2022-10-31T13:59:00;10.60;;;5.50;;
3000;SDS011;1510;51.072;6.678;2022-10-31T14:01:30;16.53;;;6.63;;
3000;SDS011;1510;51.072;6.678;2022-10-31T14:04:04;9.40;;;4.70;;
3000;SDS011;1510;51.072;6.678;2022-10-31T14:06:37;18.87;;;5.20;;
3000;SDS011;1510;51.072;6.678;2022-10-31T14:09:14;15.47;;;4.57;;
3000;SDS011;1510;51.072;6.678;2022-10-31T14:11:47;14.70;;;4.83;;
3000;SDS011;1510;51.072;6.678;2022-10-31T14:14:16;21.50;;;5.80;;
3000;SDS011;1510;51.072;6.678;2022-10-31T14:16:45;16.93;;;4.97;;
3000;SDS011;1510;51.072;6.678;2022-10-31T14:19:19;14.53;;;5.60;;
3000;SDS011;1510;51.072;6.678;2022-10-31T14:21:46;12.60;;;5.70;;
3000;SDS011;1510;51.072;6.678;2022-10-31T14:24:15;11.47;;;4.40;;
3000;SDS011;1510;51.072;6.678;2022-10-31T14:26:57;10.90;;;5.03;;
3000;SDS011;1510;51.072;6.678;2022-10-31T14:29:26;9.27;;;4.70;;
3000;SDS011;1510;51.072;6.678;2022-10-31T14:31:55;14.10;;;5.50;;
3000;SDS011;1510;51.072;6.678;2022-10-31T14:34:26;14.30;;;5.17;;
3000;SDS011;1510;51.072;6.678;2022-10-31T14:37:06;12.93;;;4.60;;
3000;SDS011;1510;51.072;6.678;2022-10-31T14:39:58;10.87;;;5.00;;
3000;SDS011;1510;51.072;6.678;2022-10-31T14:42:42;12.53;;;4.20;;
3000;SDS011;1510;51.072;6.678;2022-10-31T14:45:23;13.63;;;4.97;;
3000;SDS011;1510;51.072;6.678;2022-10-31T14:47:58;18.30;;;5.40;;
3000;SDS011;1510;51.072;6.678;2022-10-31T14:50:39;12.63;;;5.23;;
3000;SDS011;1510;51.072;6.678;2022-10-31T14:53:12;12.60;;;5.10;;
3000;SDS011;1510;51.072;6.678;2022-10-31T14:55:46;8.67;;;5.23;;
3000;SDS011;1510;51.072;6.678;2022-10-31T14:58:17;12.20;;;5.13;;
3000;SDS011;1510;51.072;6.678;2022-10-31T15:00:47;12.33;;;4.97;;
3000;SDS011;1510;51.072;6.678;2022-10-31T15:03:15;12.37;;;5.37;;